Time;durP1;ratioP1;P1;durP2;ratioP2;P2;SDS_P1;SDS_P2;PMS_P1;PMS_P2;Temp;Humidity;BMP_temperature;BMP_pressure;BME280_temperature;BME280_humidity;BME280_pressure;Samples;Min_cycle;Max_cycle;Signal;HPM_P1;HPM_P2
2024/01/07 00:00:10;;;;;;;3.72;1.67;;;;;;;7.56;91.60;98925.75;337870;28;4827;-78
2024/01/07 00:00:22;;;;;;;3.70;1.60;;;;;;;7.55;91.26;98927.50;337493;28;4901;-78
2024/01/07 00:00:34;;;;;;;3.55;1.77;;;;;;;7.60;91.11;98923.03;334984;28;17691;-78
2024/01/07 00:00:46;;;;;;;3.85;1.80;;;;;;;7.64;90.61;98925.53;334921;28;5533;-78
2024/01/07 00:00:59;;;;;;;3.45;1.80;;;;;;;7.66;90.12;98919.41;332876;28;18099;-78
2024/01/07 00:01:11;;;;;;;3.53;1.80;;;;;;;7.66;90.02;98926.31;337527;28;5846;-78
2024/01/07 00:01:23;;;;;;;3.05;1.77;;;;;;;7.64;89.82;98920.34;335965;28;12874;-77
2024/01/07 00:01:35;;;;;;;3.28;1.90;;;;;;;7.56;89.61;98929.19;337137;28;4847;-77
2024/01/07 00:01:49;;;;;;;3.38;1.88;;;;;;;7.53;89.88;98929.31;336093;28;4721;-78
2024/01/07 00:02:01;;;;;;;3.65;1.90;;;;;;;7.47;89.93;98929.50;335635;28;17819;-78
2024/01/07 00:02:13;;;;;;;3.55;1.75;;;;;;;7.40;90.24;98935.75;335109;28;15149;-78
2024/01/07 00:02:25;;;;;;;3.42;1.75;;;;;;;7.34;90.22;98926.44;337762;28;4533;-78
2024/01/07 00:02:37;;;;;;;3.35;1.70;;;;;;;7.39;90.91;98931.47;337224;28;4708;-77
2024/01/07 00:02:49;;;;;;;3.15;1.88;;;;;;;7.41;90.77;98934.88;334983;28;16529;-78
2024/01/07 00:03:01;;;;;;;2.90;1.90;;;;;;;7.42;90.51;98926.19;338396;28;5734;-78
2024/01/07 00:03:13;;;;;;;2.83;1.90;;;;;;;7.43;90.61;98927.91;334967;28;13449;-78
2024/01/07 00:03:25;;;;;;;3.25;1.80;;;;;;;7.43;90.47;98922.72;337207;28;4552;-78
2024/01/07 00:03:40;;;;;;;3.42;1.52;;;;;;;7.44;90.82;98928.75;338483;28;5509;-78
2024/01/07 00:03:52;;;;;;;4.07;1.50;;;;;;;7.43;90.66;98933.06;335621;28;17975;-77
2024/01/07 00:04:04;;;;;;;3.80;1.50;;;;;;;7.44;90.97;98937.34;334987;28;18100;-77
2024/01/07 00:04:16;;;;;;;2.78;1.50;;;;;;;7.40;90.65;98933.16;337904;28;4591;-77
2024/01/07 00:04:29;;;;;;;3.38;1.80;;;;;;;7.36;91.04;98927.25;334963;28;17973;-78
2024/01/07 00:04:41;;;;;;;4.10;2.30;;;;;;;7.37;91.23;98935.84;337938;28;4671;-78
2024/01/07 00:04:53;;;;;;;3.70;2.30;;;;;;;7.37;91.31;98934.09;337727;28;4544;-78
2024/01/07 00:05:05;;;;;;;3.55;1.95;;;;;;;7.37;91.43;98933.25;332046;28;18151;-78
2024/01/07 00:05:17;;;;;;;3.30;1.90;;;;;;;7.38;91.03;98932.34;334917;28;17427;-78
2024/01/07 00:05:29;;;;;;;2.70;1.77;;;;;;;7.41;91.19;98932.28;335506;28;18238;-78
2024/01/07 00:05:46;;;;;;;2.47;1.65;;;;;;;7.48;91.00;98935.50;334500;28;17425;-78
2024/01/07 00:05:59;;;;;;;3.50;2.08;;;;;;;7.52;90.35;98932.75;337302;28;4619;-77
2024/01/07 00:06:11;;;;;;;4.93;2.22;;;;;;;7.53;90.05;98929.31;334862;28;18016;-78
2024/01/07 00:06:23;;;;;;;5.20;2.17;;;;;;;7.52;90.10;98927.59;337708;28;5134;-78
2024/01/07 00:06:35;;;;;;;6.22;1.95;;;;;;;7.50;89.91;98929.38;335579;28;12512;-78
2024/01/07 00:06:47;;;;;;;4.90;1.98;;;;;;;7.46;89.92;98932.97;330492;28;6176;-77
2024/01/07 00:06:59;;;;;;;4.68;2.53;;;;;;;7.45;89.75;98936.47;336533;28;5961;-78
2024/01/07 00:07:11;;;;;;;4.85;2.50;;;;;;;7.42;90.18;98933.94;334720;28;19528;-78
2024/01/07 00:07:23;;;;;;;4.30;2.00;;;;;;;7.41;90.28;98932.28;336907;28;6253;-77
2024/01/07 00:07:35;;;;;;;3.70;1.95;;;;;;;7.32;90.36;98935.13;335292;28;17966;-77
2024/01/07 00:07:49;;;;;;;3.55;2.10;;;;;;;7.31;90.57;98933.47;337381;28;4675;-78
2024/01/07 00:08:01;;;;;;;3.97;1.98;;;;;;;7.29;91.10;98930.06;335193;28;19000;-78
2024/01/07 00:08:13;;;;;;;3.53;1.85;;;;;;;7.32;90.95;98929.97;339030;28;5554;-78
2024/01/07 00:08:25;;;;;;;3.58;2.10;;;;;;;7.32;91.03;98929.97;336396;28;13824;-78
2024/01/07 00:08:37;;;;;;;3.65;2.13;;;;;;;7.33;91.39;98934.25;338260;28;4616;-78
2024/01/07 00:08:49;;;;;;;3.45;1.95;;;;;;;7.33;91.83;98936.84;338757;28;5318;-77
2024/01/07 00:09:01;;;;;;;2.95;1.80;;;;;;;7.32;91.60;98935.13;334015;28;17039;-78
2024/01/07 00:09:13;;;;;;;2.97;1.75;;;;;;;7.33;91.79;98937.69;337259;28;4733;-78
2024/01/07 00:09:25;;;;;;;3.75;1.80;;;;;;;7.27;91.57;98937.88;334867;28;8889;-77
2024/01/07 00:09:37;;;;;;;3.67;1.77;;;;;;;7.25;91.54;98931.06;338060;28;4636;-78
2024/01/07 00:09:49;;;;;;;3.85;1.83;;;;;;;7.25;91.91;98936.22;338755;28;4706;-78
2024/01/07 00:10:02;;;;;;;3.60;2.13;;;;;;;7.26;91.86;98935.31;335245;28;20006;-78
2024/01/07 00:10:14;;;;;;;4.93;2.58;;;;;;;7.24;91.72;98929.34;337637;28;4563;-78
2024/01/07 00:10:26;;;;;;;5.40;2.97;;;;;;;7.25;92.02;98933.66;334605;28;12462;-78
2024/01/07 00:10:38;;;;;;;4.18;2.60;;;;;;;7.22;91.57;98938.91;338611;28;4855;-78
2024/01/07 00:10:53;;;;;;;4.13;2.38;;;;;;;7.22;91.62;98928.56;332549;28;18093;-78
2024/01/07 00:11:05;;;;;;;4.40;2.30;;;;;;;7.24;92.09;98937.09;331083;28;4755;-77
2024/01/07 00:11:17;;;;;;;3.83;2.20;;;;;;;7.26;91.88;98932.75;332274;28;18889;-77
2024/01/07 00:11:29;;;;;;;3.88;2.10;;;;;;;7.25;91.64;98934.50;335080;28;4639;-78
2024/01/07 00:11:42;;;;;;;4.28;2.42;;;;;;;7.27;91.58;98927.53;333552;28;12845;-78
2024/01/07 00:11:54;;;;;;;4.30;2.47;;;;;;;7.28;91.31;98934.38;336285;28;4508;-78
2024/01/07 00:12:06;;;;;;;4.60;2.50;;;;;;;7.32;91.24;98935.13;335978;28;4625;-78
2024/01/07 00:12:18;;;;;;;4.68;2.70;;;;;;;7.31;91.49;98933.47;333798;28;18197;-77
2024/01/07 00:12:31;;;;;;;4.40;2.80;;;;;;;7.35;91.32;98935.06;337647;28;4553;-78
2024/01/07 00:12:44;;;;;;;4.50;2.65;;;;;;;7.36;91.26;98928.97;333352;28;16364;-78
2024/01/07 00:12:56;;;;;;;4.07;2.65;;;;;;;7.40;91.38;98933.16;337636;28;4645;-78
2024/01/07 00:13:08;;;;;;;3.90;2.80;;;;;;;7.40;91.09;98935.75;336196;28;19619;-78
2024/01/07 00:13:20;;;;;;;3.97;2.80;;;;;;;7.39;91.10;98931.47;339839;28;4499;-77
2024/01/07 00:13:32;;;;;;;3.95;2.70;;;;;;;7.43;90.91;98927.06;337709;28;16563;-78
2024/01/07 00:13:45;;;;;;;3.53;2.38;;;;;;;7.41;91.02;98929.69;339548;28;4641;-77
2024/01/07 00:13:58;;;;;;;3.05;2.05;;;;;;;7.44;90.84;98934.75;330908;28;16479;-78
2024/01/07 00:14:10;;;;;;;2.80;1.92;;;;;;;7.46;90.85;98932.97;337264;28;4744;-77
2024/01/07 00:14:22;;;;;;;2.50;1.80;;;;;;;7.46;90.57;98926.94;335911;28;12863;-78
2024/01/07 00:14:34;;;;;;;2.72;1.88;;;;;;;7.29;90.44;98932.66;331802;28;17941;-78
2024/01/07 00:14:46;;;;;;;3.00;1.85;;;;;;;7.13;91.64;98929.69;338306;28;4716;-78
2024/01/07 00:14:58;;;;;;;3.47;1.85;;;;;;;7.09;91.89;98934.09;334584;28;18417;-78
2024/01/07 00:15:10;;;;;;;2.85;1.70;;;;;;;7.05;92.53;98932.50;337080;28;7609;-77
2024/01/07 00:15:22;;;;;;;2.92;1.77;;;;;;;7.12;92.62;98934.03;335279;28;5309;-78
2024/01/07 00:15:34;;;;;;;3.97;2.08;;;;;;;7.17;92.72;98933.88;336480;28;4661;-78
2024/01/07 00:15:46;;;;;;;3.75;1.90;;;;;;;7.16;92.63;98935.63;336579;28;4699;-78
2024/01/07 00:15:58;;;;;;;3.72;1.90;;;;;;;7.13;92.34;98935.69;335475;28;18128;-78
2024/01/07 00:16:10;;;;;;;4.13;1.92;;;;;;;7.17;92.31;98934.72;337401;28;4613;-78
2024/01/07 00:16:22;;;;;;;4.82;2.15;;;;;;;7.22;92.28;98933.72;335055;28;13062;-78
2024/01/07 00:16:34;;;;;;;6.80;2.33;;;;;;;7.26;91.97;98930.16;337710;28;5047;-78
2024/01/07 00:16:46;;;;;;;6.82;2.35;;;;;;;7.29;92.13;98930.91;337412;28;5298;-78
2024/01/07 00:16:58;;;;;;;5.65;2.08;;;;;;;7.32;91.77;98935.13;333290;28;5374;-78
2024/01/07 00:17:10;;;;;;;4.28;2.08;;;;;;;7.34;91.58;98938.53;337631;28;4785;-78
2024/01/07 00:17:23;;;;;;;4.28;2.25;;;;;;;7.34;91.67;98935.94;338755;28;4758;-78
2024/01/07 00:17:35;;;;;;;3.90;2.20;;;;;;;7.37;91.47;98930.69;334478;28;17965;-78
2024/01/07 00:17:47;;;;;;;3.92;2.22;;;;;;;7.38;91.40;98933.22;336602;28;4607;-78
2024/01/07 00:17:59;;;;;;;4.13;2.30;;;;;;;7.37;91.60;98933.25;334445;28;17981;-77
2024/01/07 00:18:12;;;;;;;4.57;2.38;;;;;;;7.40;91.48;98934.03;337764;28;4838;-78
2024/01/07 00:18:24;;;;;;;3.28;1.92;;;;;;;7.43;91.52;98933.06;335313;28;17871;-78
2024/01/07 00:18:36;;;;;;;3.22;1.98;;;;;;;7.46;91.40;98927.78;337969;28;4604;-77
2024/01/07 00:18:48;;;;;;;4.35;2.40;;;;;;;7.47;91.44;98932.09;334410;28;18446;-78
2024/01/07 00:19:01;;;;;;;4.55;2.67;;;;;;;7.46;91.07;98925.19;337441;28;4804;-77
2024/01/07 00:19:13;;;;;;;4.25;2.60;;;;;;;7.47;91.05;98929.50;334413;28;13286;-78
2024/01/07 00:19:26;;;;;;;4.82;2.53;;;;;;;7.48;90.82;98931.16;338095;28;5820;-78
2024/01/07 00:19:39;;;;;;;5.97;2.90;;;;;;;7.45;90.71;98935.63;338619;28;5595;-78
2024/01/07 00:19:51;;;;;;;6.28;3.15;;;;;;;7.35;90.62;98935.88;330524;28;17817;-78
2024/01/07 00:20:04;;;;;;;5.88;3.40;;;;;;;7.36;90.95;98931.56;336421;28;5281;-78
2024/01/07 00:20:16;;;;;;;5.72;2.90;;;;;;;7.39;91.27;98932.31;333540;28;18379;-77
2024/01/07 00:20:29;;;;;;;5.93;2.97;;;;;;;7.43;91.03;98933.06;337295;28;4985;-78
2024/01/07 00:20:41;;;;;;;5.88;3.08;;;;;;;7.47;90.94;98931.25;336045;28;17974;-78
2024/01/07 00:20:56;;;;;;;5.70;3.00;;;;;;;7.49;90.79;98927.72;334966;28;18162;-78
2024/01/07 00:21:08;;;;;;;5.40;2.88;;;;;;;7.45;90.72;98936.47;339429;28;5337;-78
2024/01/07 00:21:20;;;;;;;4.97;2.60;;;;;;;7.46;91.01;98932.13;335114;28;19650;-78
2024/01/07 00:21:32;;;;;;;4.65;2.50;;;;;;;7.48;90.82;98935.50;338933;28;4695;-78
2024/01/07 00:21:44;;;;;;;4.45;2.28;;;;;;;7.50;90.85;98925.97;335306;28;14204;-78
2024/01/07 00:21:56;;;;;;;3.78;2.22;;;;;;;7.43;90.72;98937.41;337584;28;4931;-77
2024/01/07 00:22:08;;;;;;;4.07;2.40;;;;;;;7.38;90.96;98934.94;336913;28;4558;-78
2024/01/07 00:22:20;;;;;;;6.25;2.90;;;;;;;7.37;91.06;98933.25;333430;28;18614;-77
2024/01/07 00:22:33;;;;;;;7.22;3.03;;;;;;;7.35;91.10;98929.88;337364;28;5538;-78
2024/01/07 00:22:45;;;;;;;5.93;2.67;;;;;;;7.32;91.08;98929.97;332181;28;4557;-78
2024/01/07 00:22:57;;;;;;;5.88;2.60;;;;;;;7.26;91.39;98937.91;334224;28;18024;-78
2024/01/07 00:23:09;;;;;;;6.43;2.63;;;;;;;7.30;91.00;98931.75;335773;28;4651;-78
2024/01/07 00:23:21;;;;;;;6.13;2.70;;;;;;;7.28;90.92;98934.38;330429;28;18313;-78
2024/01/07 00:23:33;;;;;;;5.22;2.50;;;;;;;7.31;91.14;98934.28;334678;28;6639;-78
2024/01/07 00:23:45;;;;;;;4.30;2.45;;;;;;;7.33;90.99;98936.84;337261;28;5116;-78
2024/01/07 00:23:57;;;;;;;4.22;2.33;;;;;;;7.37;91.09;98936.69;334982;28;18382;-78
2024/01/07 00:24:09;;;;;;;5.30;2.53;;;;;;;7.40;91.00;98933.16;331280;28;4787;-78
2024/01/07 00:24:21;;;;;;;5.00;2.50;;;;;;;7.36;90.91;98931.56;334929;28;18062;-77
2024/01/07 00:24:33;;;;;;;5.25;2.47;;;;;;;7.40;91.30;98934.03;337358;28;4566;-77
2024/01/07 00:24:45;;;;;;;4.47;2.20;;;;;;;7.44;91.25;98929.56;334536;28;4716;-78
2024/01/07 00:24:57;;;;;;;4.22;2.17;;;;;;;7.48;91.04;98926.00;337323;28;4603;-78
2024/01/07 00:25:09;;;;;;;4.25;2.22;;;;;;;7.52;90.66;98931.94;337431;28;4749;-78
2024/01/07 00:25:22;;;;;;;3.60;2.13;;;;;;;7.55;90.63;98937.84;333853;28;16338;-78
2024/01/07 00:25:34;;;;;;;3.42;2.08;;;;;;;7.54;90.21;98933.56;335887;28;17564;-78
2024/01/07 00:25:47;;;;;;;3.83;2.10;;;;;;;7.52;90.18;98927.59;337867;28;11252;-78
2024/01/07 00:25:59;;;;;;;3.70;1.98;;;;;;;7.46;90.01;98932.97;339064;28;5379;-77
2024/01/07 00:26:11;;;;;;;3.28;1.88;;;;;;;7.47;90.31;98934.66;335996;28;13600;-78
2024/01/07 00:26:23;;;;;;;2.88;1.80;;;;;;;7.46;89.89;98940.72;336403;28;18707;-78
2024/01/07 00:26:35;;;;;;;3.33;2.00;;;;;;;7.46;90.42;98930.38;337018;28;5387;-77
2024/01/07 00:26:47;;;;;;;3.38;2.10;;;;;;;7.45;90.11;98931.28;330892;28;6252;-78
2024/01/07 00:26:59;;;;;;;3.40;2.13;;;;;;;7.46;89.76;98932.13;337399;28;5849;-78
2024/01/07 00:27:11;;;;;;;3.05;1.92;;;;;;;7.39;89.87;98928.91;334770;28;13956;-78
2024/01/07 00:27:23;;;;;;;3.95;2.00;;;;;;;7.41;89.98;98942.63;338162;28;5491;-78
2024/01/07 00:27:35;;;;;;;4.65;2.15;;;;;;;7.36;90.17;98936.72;337420;28;4626;-78
2024/01/07 00:27:47;;;;;;;5.03;2.30;;;;;;;7.25;90.76;98938.81;334274;28;18158;-78
2024/01/07 00:28:00;;;;;;;4.38;2.30;;;;;;;7.26;91.22;98943.06;337645;28;4679;-78
2024/01/07 00:28:12;;;;;;;3.97;2.33;;;;;;;7.29;91.23;98943.00;337384;28;6024;-78
2024/01/07 00:28:24;;;;;;;3.47;2.08;;;;;;;7.31;91.12;98936.88;330549;28;19593;-77
2024/01/07 00:28:36;;;;;;;3.78;2.00;;;;;;;7.20;91.01;98942.38;338036;28;4587;-78
2024/01/07 00:28:48;;;;;;;3.78;2.05;;;;;;;7.16;91.30;98930.44;334910;28;19486;-78
2024/01/07 00:29:00;;;;;;;4.07;2.25;;;;;;;7.23;91.24;98940.59;338313;28;4675;-77
2024/01/07 00:29:12;;;;;;;4.05;2.10;;;;;;;7.23;91.19;98943.19;334124;28;12924;-78
2024/01/07 00:29:24;;;;;;;4.13;1.80;;;;;;;7.23;91.32;98936.28;335199;28;5942;-78
2024/01/07 00:29:37;;;;;;;4.80;1.90;;;;;;;7.26;91.42;98940.50;336556;28;4694;-78
2024/01/07 00:29:49;;;;;;;4.53;1.90;;;;;;;7.31;91.16;98934.28;333565;28;18272;-78
2024/01/07 00:30:01;;;;;;;3.78;1.92;;;;;;;7.34;91.16;98933.34;336534;28;4579;-78
2024/01/07 00:30:13;;;;;;;3.55;2.05;;;;;;;7.35;90.98;98940.22;332901;28;18282;-78
2024/01/07 00:30:25;;;;;;;4.03;2.30;;;;;;;7.31;91.04;98944.63;337458;28;5240;-78
2024/01/07 00:30:37;;;;;;;3.67;2.10;;;;;;;7.31;91.23;98938.63;333681;28;17584;-78
2024/01/07 00:30:49;;;;;;;3.55;1.90;;;;;;;7.35;90.76;98937.63;336361;28;4620;-78
2024/01/07 00:31:02;;;;;;;3.88;2.10;;;;;;;7.35;90.96;98935.88;337558;28;5278;-78
2024/01/07 00:31:14;;;;;;;4.00;2.20;;;;;;;7.31;90.86;98936.03;335093;28;18363;-78
2024/01/07 00:31:26;;;;;;;3.78;2.03;;;;;;;7.33;90.84;98947.19;336286;28;17475;-77
2024/01/07 00:31:38;;;;;;;3.30;1.95;;;;;;;7.33;90.70;98942.00;337198;28;13232;-78
2024/01/07 00:31:50;;;;;;;3.42;1.98;;;;;;;7.34;90.78;98938.53;338742;28;4586;-78
2024/01/07 00:32:03;;;;;;;5.22;2.05;;;;;;;7.36;90.72;98941.91;337966;28;4688;-78
2024/01/07 00:32:15;;;;;;;6.25;2.05;;;;;;;7.34;90.50;98934.19;335374;28;17833;-78
2024/01/07 00:32:27;;;;;;;6.30;2.05;;;;;;;7.33;90.77;98936.84;338995;28;4726;-77
2024/01/07 00:32:39;;;;;;;5.32;2.00;;;;;;;7.29;90.75;98937.81;330962;28;17926;-77
2024/01/07 00:32:51;;;;;;;3.90;2.00;;;;;;;7.30;91.05;98937.75;335930;28;5869;-78
2024/01/07 00:33:03;;;;;;;4.03;2.17;;;;;;;7.31;91.14;98938.63;333740;28;13010;-78
2024/01/07 00:33:15;;;;;;;3.53;2.08;;;;;;;7.33;90.72;98936.84;337594;28;4674;-78
2024/01/07 00:33:30;;;;;;;3.50;2.05;;;;;;;7.35;91.09;98937.63;337951;28;4561;-78
2024/01/07 00:33:42;;;;;;;3.88;2.45;;;;;;;7.27;90.97;98943.03;335391;28;18013;-78
2024/01/07 00:33:54;;;;;;;5.13;2.67;;;;;;;7.23;91.14;98935.44;330312;28;18054;-78
2024/01/07 00:34:06;;;;;;;5.40;2.40;;;;;;;7.25;90.99;98933.66;338188;28;5218;-78
2024/01/07 00:34:18;;;;;;;6.13;2.38;;;;;;;7.23;91.43;98928.50;334432;28;16595;-78
2024/01/07 00:34:30;;;;;;;4.60;2.08;;;;;;;7.23;91.57;98940.59;336792;28;4504;-78
2024/01/07 00:34:43;;;;;;;2.88;1.88;;;;;;;7.21;91.43;98940.66;336715;28;9910;-78
2024/01/07 00:34:55;;;;;;;3.50;2.15;;;;;;;7.24;91.73;98934.53;334087;28;18292;-78
2024/01/07 00:35:07;;;;;;;3.50;2.10;;;;;;;7.25;91.60;98944.00;338580;28;5278;-78
2024/01/07 00:35:19;;;;;;;3.15;2.05;;;;;;;7.30;91.63;98947.25;335047;28;18092;-78
2024/01/07 00:35:31;;;;;;;3.58;2.10;;;;;;;7.28;91.34;98941.28;337573;28;5017;-78
2024/01/07 00:35:43;;;;;;;4.55;2.40;;;;;;;7.27;91.50;98943.03;337969;28;5750;-77
2024/01/07 00:35:55;;;;;;;5.22;2.40;;;;;;;7.10;91.17;98940.97;332235;28;5250;-78
2024/01/07 00:36:08;;;;;;;4.25;2.38;;;;;;;6.98;91.71;98941.31;338160;28;4604;-77
2024/01/07 00:36:20;;;;;;;3.92;2.28;;;;;;;6.99;91.81;98937.84;333679;28;17604;-78
2024/01/07 00:36:32;;;;;;;3.80;2.20;;;;;;;7.05;92.42;98937.66;336097;28;4807;-78
2024/01/07 00:36:44;;;;;;;4.38;2.38;;;;;;;7.10;92.46;98945.28;335476;28;5299;-78
2024/01/07 00:36:56;;;;;;;4.18;2.40;;;;;;;7.11;91.91;98937.47;330379;28;19168;-78
2024/01/07 00:37:08;;;;;;;5.18;2.47;;;;;;;7.16;92.13;98940.78;337978;28;4977;-78
2024/01/07 00:37:20;;;;;;;5.25;2.30;;;;;;;7.20;92.15;98942.38;335820;28;6943;-78
2024/01/07 00:37:34;;;;;;;6.15;2.55;;;;;;;7.20;91.66;98947.56;337569;28;4720;-78
2024/01/07 00:37:46;;;;;;;5.32;2.67;;;;;;;7.10;91.97;98940.97;333593;28;18169;-78
2024/01/07 00:37:58;;;;;;;4.60;2.63;;;;;;;7.17;92.20;98944.22;336025;28;4535;-78
2024/01/07 00:38:11;;;;;;;4.80;2.70;;;;;;;7.23;91.91;98946.59;335636;28;18277;-78
2024/01/07 00:38:23;;;;;;;4.20;2.60;;;;;;;7.26;91.78;98945.66;337433;28;5260;-78
2024/01/07 00:38:35;;;;;;;4.85;2.50;;;;;;;7.25;91.52;98941.41;331896;28;5456;-78
2024/01/07 00:38:47;;;;;;;5.93;2.50;;;;;;;7.26;91.50;98940.50;337364;28;17356;-78
2024/01/07 00:38:59;;;;;;;5.00;2.60;;;;;;;7.23;91.35;98944.03;338163;28;4564;-78
2024/01/07 00:39:11;;;;;;;4.47;2.45;;;;;;;7.24;91.46;98943.13;335025;28;18313;-78
2024/01/07 00:39:24;;;;;;;4.80;2.22;;;;;;;7.22;91.46;98944.06;339525;28;5597;-77
2024/01/07 00:39:36;;;;;;;5.10;2.42;;;;;;;7.19;91.96;98940.69;338113;28;16134;-78
2024/01/07 00:39:48;;;;;;;4.68;2.75;;;;;;;7.20;91.84;98942.38;335007;28;5353;-78
2024/01/07 00:40:00;;;;;;;5.05;2.70;;;;;;;7.27;91.55;98942.19;336260;28;8388;-78
2024/01/07 00:40:13;;;;;;;6.13;2.38;;;;;;;7.30;91.26;98942.09;338297;28;4549;-78
2024/01/07 00:40:25;;;;;;;5.63;2.08;;;;;;;7.32;91.23;98942.88;336009;28;12951;-78
2024/01/07 00:40:38;;;;;;;4.07;2.28;;;;;;;7.36;91.13;98941.91;335798;28;17310;-78
2024/01/07 00:40:50;;;;;;;3.42;2.20;;;;;;;7.39;90.59;98944.41;337211;28;5206;-77
2024/01/07 00:41:02;;;;;;;3.75;2.30;;;;;;;7.37;90.78;98941.88;335103;28;5458;-78
2024/01/07 00:41:14;;;;;;;5.47;2.22;;;;;;;7.38;90.83;98945.28;338451;28;4583;-78
2024/01/07 00:41:26;;;;;;;5.60;2.08;;;;;;;7.40;90.90;98943.50;335779;28;13095;-78
2024/01/07 00:41:38;;;;;;;5.13;2.17;;;;;;;7.38;90.60;98940.13;338485;28;5319;-78
2024/01/07 00:41:50;;;;;;;3.95;2.30;;;;;;;7.38;90.78;98945.28;339187;28;5293;-78
2024/01/07 00:42:02;;;;;;;4.07;2.22;;;;;;;7.34;90.85;98939.34;335965;28;17322;-78
2024/01/07 00:42:14;;;;;;;4.60;2.28;;;;;;;7.30;90.70;98942.94;339205;28;4734;-78
2024/01/07 00:42:26;;;;;;;4.72;2.47;;;;;;;7.32;90.87;98940.31;337742;28;12330;-78
2024/01/07 00:42:38;;;;;;;4.97;2.50;;;;;;;7.34;91.11;98943.69;338221;28;18021;-78
2024/01/07 00:42:51;;;;;;;4.15;2.33;;;;;;;7.34;91.00;98944.53;337766;28;5286;-77
2024/01/07 00:43:03;;;;;;;3.45;2.00;;;;;;;7.36;90.78;98941.91;336550;28;18260;-78
2024/01/07 00:43:15;;;;;;;3.58;2.15;;;;;;;7.36;90.74;98947.06;337305;28;5770;-78
2024/01/07 00:43:27;;;;;;;3.70;2.38;;;;;;;7.34;90.72;98939.34;336285;28;18269;-78
2024/01/07 00:43:40;;;;;;;3.70;2.47;;;;;;;7.30;90.89;98944.69;339032;28;4655;-78
2024/01/07 00:43:52;;;;;;;3.65;2.28;;;;;;;7.19;91.37;98943.25;330286;28;18098;-78
2024/01/07 00:44:04;;;;;;;4.00;2.33;;;;;;;7.15;91.70;98933.91;337200;28;4710;-76
2024/01/07 00:44:16;;;;;;;3.80;2.30;;;;;;;7.16;92.22;98939.91;334272;28;9509;-78
2024/01/07 00:44:28;;;;;;;3.38;2.13;;;;;;;7.14;92.75;98946.88;337274;28;4967;-78
2024/01/07 00:44:40;;;;;;;4.45;2.13;;;;;;;7.17;92.93;98945.06;338056;28;5628;-77
2024/01/07 00:44:52;;;;;;;4.10;2.08;;;;;;;7.19;92.47;98940.69;334819;28;19354;-77
2024/01/07 00:45:05;;;;;;;3.28;2.08;;;;;;;7.24;92.97;98944.88;338628;28;4534;-78
2024/01/07 00:45:18;;;;;;;3.65;2.20;;;;;;;7.25;92.49;98942.25;337393;28;4689;-77
2024/01/07 00:45:30;;;;;;;4.45;2.08;;;;;;;7.27;92.82;98942.19;337384;28;18029;-77
2024/01/07 00:45:42;;;;;;;4.13;2.17;;;;;;;7.24;92.34;98947.44;338967;28;5116;-77
2024/01/07 00:45:54;;;;;;;3.60;2.30;;;;;;;7.25;92.48;98944.00;336594;28;18294;-78
2024/01/07 00:46:06;;;;;;;3.97;2.45;;;;;;;7.28;92.25;98943.88;339832;28;5234;-78
2024/01/07 00:46:18;;;;;;;4.30;2.60;;;;;;;7.28;91.57;98943.88;336969;28;18126;-78
2024/01/07 00:46:30;;;;;;;4.30;2.50;;;;;;;7.29;92.02;98945.59;339733;28;4734;-77
2024/01/07 00:46:42;;;;;;;4.38;2.45;;;;;;;7.31;91.66;98943.81;337225;28;6909;-77
2024/01/07 00:46:58;;;;;;;6.80;2.70;;;;;;;7.30;91.89;98942.09;337231;28;17315;-78
2024/01/07 00:47:11;;;;;;;7.35;3.00;;;;;;;7.29;91.60;98945.59;339491;28;4554;-77
2024/01/07 00:47:23;;;;;;;5.47;3.08;;;;;;;7.30;91.93;98942.09;336170;28;19275;-77
2024/01/07 00:47:35;;;;;;;5.88;3.10;;;;;;;7.28;91.72;98943.88;337099;28;4565;-78
2024/01/07 00:47:47;;;;;;;5.95;3.10;;;;;;;7.27;92.04;98943.03;335821;28;4690;-78
2024/01/07 00:47:59;;;;;;;5.80;3.13;;;;;;;7.27;91.84;98945.63;333964;28;18393;-77
2024/01/07 00:48:12;;;;;;;5.07;3.15;;;;;;;7.33;92.22;98942.84;337326;28;4617;-78
2024/01/07 00:48:24;;;;;;;5.00;3.20;;;;;;;7.36;92.01;98947.06;329906;28;18286;-78
2024/01/07 00:48:36;;;;;;;4.55;2.88;;;;;;;7.40;92.34;98941.78;336978;28;4666;-78
2024/01/07 00:48:49;;;;;;;4.93;3.03;;;;;;;7.40;91.59;98939.19;334323;28;17986;-78
2024/01/07 00:49:01;;;;;;;5.63;3.40;;;;;;;7.40;91.46;98943.50;336822;28;4588;-78
2024/01/07 00:49:13;;;;;;;6.30;3.72;;;;;;;7.43;91.59;98942.56;337870;28;5507;-78
2024/01/07 00:49:25;;;;;;;5.82;3.33;;;;;;;7.44;91.43;98939.91;334289;28;17974;-78
2024/01/07 00:49:39;;;;;;;5.00;2.75;;;;;;;7.44;90.88;98936.50;336127;28;4708;-78
2024/01/07 00:49:51;;;;;;;4.45;2.33;;;;;;;7.25;90.94;98938.81;333700;28;17838;-77
2024/01/07 00:50:04;;;;;;;4.40;2.50;;;;;;;7.07;92.04;98941.06;335160;28;18177;-78
2024/01/07 00:50:16;;;;;;;4.68;2.70;;;;;;;7.08;91.90;98937.56;335920;28;5114;-78
2024/01/07 00:50:28;;;;;;;4.28;2.53;;;;;;;7.12;92.51;98938.31;335393;28;4726;-78
2024/01/07 00:50:40;;;;;;;4.60;2.67;;;;;;;7.11;92.26;98939.22;337383;28;4746;-78
2024/01/07 00:50:52;;;;;;;4.65;2.70;;;;;;;7.16;92.37;98940.78;336166;28;4811;-78
2024/01/07 00:51:04;;;;;;;4.97;2.80;;;;;;;7.22;92.33;98944.06;330762;28;19413;-77
2024/01/07 00:51:16;;;;;;;4.07;2.33;;;;;;;7.26;91.57;98946.50;330263;28;4724;-77
2024/01/07 00:51:28;;;;;;;4.38;2.35;;;;;;;7.24;91.72;98948.28;333823;29;4608;-77
2024/01/07 00:51:40;;;;;;;4.97;2.40;;;;;;;7.28;91.45;98941.28;328847;28;18005;-77
2024/01/07 00:51:52;;;;;;;6.03;2.63;;;;;;;7.30;91.66;98942.09;335008;28;4584;-77
2024/01/07 00:52:04;;;;;;;5.03;2.50;;;;;;;7.32;91.55;98942.88;333398;28;17958;-77
2024/01/07 00:52:16;;;;;;;5.13;2.60;;;;;;;7.34;90.95;98944.53;334564;28;5046;-77
2024/01/07 00:52:29;;;;;;;4.47;2.60;;;;;;;7.36;90.97;98941.91;334934;28;4589;-78
2024/01/07 00:52:43;;;;;;;6.55;2.47;;;;;;;7.35;90.96;98947.97;328477;28;18377;-77
2024/01/07 00:52:55;;;;;;;7.68;2.72;;;;;;;7.37;91.41;98938.44;332013;28;18002;-77
2024/01/07 00:53:07;;;;;;;8.05;2.97;;;;;;;7.40;91.08;98943.50;336143;28;4582;-78
2024/01/07 00:53:19;;;;;;;5.20;2.63;;;;;;;7.36;90.83;98936.72;335476;28;13295;-78
2024/01/07 00:53:31;;;;;;;5.20;2.67;;;;;;;7.32;90.92;98945.47;334513;28;19054;-77
2024/01/07 00:53:44;;;;;;;4.93;2.88;;;;;;;7.34;91.12;98943.69;337836;28;5042;-78
2024/01/07 00:53:56;;;;;;;4.95;2.75;;;;;;;7.36;91.22;98937.59;333185;28;17147;-78
2024/01/07 00:54:08;;;;;;;4.53;2.47;;;;;;;7.39;90.85;98949.56;336363;28;5368;-77
2024/01/07 00:54:20;;;;;;;4.88;2.42;;;;;;;7.40;90.57;98943.50;331805;28;4697;-77
2024/01/07 00:54:32;;;;;;;4.60;2.28;;;;;;;7.40;90.74;98949.53;334789;28;18297;-77
2024/01/07 00:54:44;;;;;;;4.93;2.42;;;;;;;7.41;90.59;98940.03;337295;28;4586;-78
2024/01/07 00:54:56;;;;;;;4.65;2.47;;;;;;;7.41;90.77;98937.44;334702;28;5353;-77
2024/01/07 00:55:08;;;;;;;5.15;2.47;;;;;;;7.37;90.73;98941.88;337197;28;4713;-77
2024/01/07 00:55:22;;;;;;;4.47;2.40;;;;;;;7.39;90.80;98944.41;334134;28;18418;-78
2024/01/07 00:55:37;;;;;;;3.75;2.25;;;;;;;7.35;90.97;98942.81;333990;28;5025;-78
2024/01/07 00:55:49;;;;;;;4.72;2.35;;;;;;;7.37;91.29;98941.88;337466;28;18783;-77
2024/01/07 00:56:01;;;;;;;4.40;2.35;;;;;;;7.38;91.30;98942.69;335978;28;17933;-78
2024/01/07 00:56:13;;;;;;;4.13;2.13;;;;;;;7.39;91.16;98947.84;337634;28;4683;-78
2024/01/07 00:56:28;;;;;;;4.30;2.10;;;;;;;7.42;91.08;98946.88;338493;28;5582;-78
2024/01/07 00:56:40;;;;;;;4.13;2.13;;;;;;;7.44;91.06;98944.25;339794;28;17807;-78
2024/01/07 00:56:52;;;;;;;4.20;2.33;;;;;;;7.45;91.06;98941.63;337002;28;17930;-78
2024/01/07 00:57:04;;;;;;;4.70;2.50;;;;;;;7.45;91.04;98940.78;338018;28;4630;-77
2024/01/07 00:57:16;;;;;;;4.53;2.45;;;;;;;7.46;90.86;98947.63;327472;28;17776;-78
2024/01/07 00:57:28;;;;;;;4.55;2.20;;;;;;;7.45;90.75;98951.13;339107;28;4973;-77
2024/01/07 00:57:40;;;;;;;5.07;2.42;;;;;;;7.41;90.83;98942.63;336836;28;5360;-78
2024/01/07 00:57:53;;;;;;;5.22;2.47;;;;;;;7.42;90.84;98949.47;337076;28;4725;-77
2024/01/07 00:58:05;;;;;;;4.18;2.30;;;;;;;7.47;90.80;98944.19;336911;28;4710;-77
2024/01/07 00:58:17;;;;;;;4.25;2.33;;;;;;;7.45;90.74;98944.22;329592;28;18774;-78
2024/01/07 00:58:29;;;;;;;5.25;2.60;;;;;;;7.37;90.63;98943.59;336374;28;5324;-78
2024/01/07 00:58:41;;;;;;;6.45;2.72;;;;;;;7.36;90.81;98947.06;334991;28;10180;-78
2024/01/07 00:58:53;;;;;;;6.07;2.72;;;;;;;7.40;91.04;98948.66;331646;28;17272;-78
2024/01/07 00:59:05;;;;;;;5.95;2.67;;;;;;;7.40;90.67;98949.53;337647;28;5876;-78
2024/01/07 00:59:17;;;;;;;4.85;2.45;;;;;;;7.43;90.89;98948.59;334443;28;5535;-77
2024/01/07 00:59:29;;;;;;;4.35;2.45;;;;;;;7.39;90.77;98942.66;337899;28;5303;-78
2024/01/07 00:59:41;;;;;;;4.82;2.80;;;;;;;7.32;90.57;98950.66;333408;28;5129;-78